createdAt,value
2023-10-06T00:00:01.682Z,6.66
2023-10-06T00:02:01.713Z,6.12
2023-10-06T00:04:01.717Z,6.15
2023-10-06T00:06:01.742Z,5.57
2023-10-06T00:08:01.741Z,6.21
2023-10-06T00:10:01.714Z,5.95
2023-10-06T00:12:01.738Z,5.19
2023-10-06T00:14:01.884Z,5.58
2023-10-06T00:16:01.786Z,5.43
2023-10-06T00:18:01.816Z,5.50
2023-10-06T00:20:01.768Z,5.13
2023-10-06T00:22:01.791Z,6.07
2023-10-06T00:24:01.780Z,6.43
2023-10-06T00:26:01.772Z,6.38
2023-10-06T00:28:01.752Z,6.57
2023-10-06T00:30:01.787Z,6.98
2023-10-06T00:32:01.839Z,7.12
2023-10-06T00:34:01.774Z,6.78
2023-10-06T00:36:01.772Z,7.88
2023-10-06T00:38:01.873Z,7.24
2023-10-06T00:40:01.772Z,8.85
2023-10-06T00:42:01.775Z,8.00
2023-10-06T00:44:01.821Z,7.96
2023-10-06T00:47:01.889Z,7.17
2023-10-06T00:49:01.820Z,7.04
2023-10-06T00:52:01.802Z,8.70
2023-10-06T00:54:01.810Z,7.40
2023-10-06T00:56:02.022Z,7.23
2023-10-06T00:58:01.853Z,6.85
2023-10-06T01:00:01.794Z,6.73
2023-10-06T01:03:01.951Z,7.53
2023-10-06T01:05:01.903Z,7.82
2023-10-06T01:07:01.886Z,8.23
2023-10-06T01:11:01.942Z,7.76
2023-10-06T01:13:01.864Z,7.40
2023-10-06T01:15:01.885Z,7.62
2023-10-06T01:17:02.000Z,7.63
2023-10-06T01:19:01.925Z,8.08
2023-10-06T01:21:01.873Z,8.01
2023-10-06T01:23:01.954Z,8.45
2023-10-06T01:27:01.944Z,7.58
2023-10-06T01:29:02.043Z,8.15
2023-10-06T01:31:01.914Z,8.30
2023-10-06T01:33:01.963Z,8.48
2023-10-06T01:35:02.050Z,7.96
2023-10-06T01:37:01.961Z,7.93
2023-10-06T01:39:01.919Z,8.58
2023-10-06T01:41:01.952Z,8.24
2023-10-06T01:43:01.961Z,8.48
2023-10-06T01:45:01.972Z,8.30
2023-10-06T01:47:01.999Z,8.98
2023-10-06T01:49:01.946Z,8.91
2023-10-06T01:51:01.994Z,8.04
2023-10-06T01:53:02.015Z,7.91
2023-10-06T01:55:01.953Z,7.60
2023-10-06T01:57:01.970Z,7.96
2023-10-06T01:59:02.015Z,8.45
2023-10-06T02:01:02.046Z,8.24
2023-10-06T02:03:02.127Z,7.37
2023-10-06T02:05:02.052Z,7.99
2023-10-06T02:08:02.096Z,7.41
2023-10-06T02:12:02.040Z,8.18
2023-10-06T02:15:02.005Z,8.03
2023-10-06T02:18:02.206Z,7.73
2023-10-06T02:20:02.086Z,8.29
2023-10-06T02:22:02.082Z,7.94
2023-10-06T02:24:02.072Z,7.87
2023-10-06T02:26:02.061Z,7.51
2023-10-06T02:28:02.028Z,7.49
2023-10-06T02:30:02.093Z,7.71
2023-10-06T02:32:02.242Z,8.06
2023-10-06T02:35:02.187Z,7.96
2023-10-06T02:38:02.118Z,9.20
2023-10-06T02:40:02.139Z,7.97
2023-10-06T02:42:02.070Z,8.57
2023-10-06T02:44:02.103Z,8.16
2023-10-06T02:46:02.123Z,8.34
2023-10-06T02:48:02.136Z,9.09
2023-10-06T02:50:02.140Z,8.85
2023-10-06T02:54:02.146Z,7.90
2023-10-06T02:56:02.198Z,7.56
2023-10-06T02:59:02.153Z,8.72
2023-10-06T03:02:02.342Z,8.62
2023-10-06T03:04:02.170Z,8.67
2023-10-06T03:07:02.168Z,9.51
2023-10-06T03:09:02.194Z,8.22
2023-10-06T03:11:02.190Z,8.82
2023-10-06T03:14:02.230Z,8.32
2023-10-06T03:16:02.143Z,8.13
2023-10-06T03:18:02.190Z,8.45
2023-10-06T03:20:02.246Z,9.96
2023-10-06T03:22:02.196Z,8.33
2023-10-06T03:24:02.221Z,8.25
2023-10-06T03:26:02.218Z,8.00
2023-10-06T03:28:02.187Z,8.41
2023-10-06T03:30:02.245Z,8.79
2023-10-06T03:32:02.280Z,7.75
2023-10-06T03:34:02.189Z,8.62
2023-10-06T03:36:02.230Z,8.47
2023-10-06T03:38:02.295Z,8.20
2023-10-06T03:40:02.239Z,8.17
2023-10-06T03:42:02.261Z,8.65
2023-10-06T03:44:02.294Z,7.36
2023-10-06T03:46:02.325Z,8.31
2023-10-06T03:48:02.330Z,7.17
2023-10-06T03:50:02.264Z,7.60
2023-10-06T03:54:02.295Z,8.03
2023-10-06T03:56:02.345Z,8.54
2023-10-06T03:58:02.289Z,8.13
2023-10-06T04:00:02.282Z,8.40
2023-10-06T04:02:02.410Z,9.09
2023-10-06T04:05:02.318Z,8.70
2023-10-06T04:08:02.350Z,8.99
2023-10-06T04:11:02.309Z,9.05
2023-10-06T04:13:02.320Z,8.76
2023-10-06T04:15:02.372Z,9.68
2023-10-06T04:17:02.421Z,9.70
2023-10-06T04:19:02.349Z,9.94
2023-10-06T04:22:02.377Z,9.66
2023-10-06T04:25:02.388Z,10.21
2023-10-06T04:27:02.387Z,9.29
2023-10-06T04:30:02.373Z,9.59
2023-10-06T04:32:02.430Z,9.08
2023-10-06T04:34:02.388Z,9.55
2023-10-06T04:37:02.400Z,8.26
2023-10-06T04:39:02.360Z,9.32
2023-10-06T04:41:02.445Z,9.54
2023-10-06T04:43:02.412Z,9.66
2023-10-06T04:45:02.428Z,9.95
2023-10-06T04:47:02.396Z,9.62
2023-10-06T04:49:02.435Z,8.66
2023-10-06T04:51:02.420Z,8.77
2023-10-06T04:53:02.461Z,9.68
2023-10-06T04:55:02.417Z,8.79
2023-10-06T04:58:02.434Z,9.77
2023-10-06T05:01:02.452Z,9.18
2023-10-06T05:03:02.532Z,9.35
2023-10-06T05:05:02.483Z,9.25
2023-10-06T05:07:02.441Z,9.37
2023-10-06T05:12:02.479Z,8.51
2023-10-06T05:14:02.557Z,8.99
2023-10-06T05:16:02.637Z,9.34
2023-10-06T05:19:02.485Z,9.59
2023-10-06T05:21:02.500Z,10.84
2023-10-06T05:23:02.532Z,10.18
2023-10-06T05:25:02.500Z,10.12
2023-10-06T05:27:02.676Z,9.71
2023-10-06T05:29:02.555Z,9.77
2023-10-06T05:31:02.472Z,9.62
2023-10-06T05:33:02.586Z,9.99
2023-10-06T05:37:02.538Z,10.59
2023-10-06T05:40:02.550Z,10.78
2023-10-06T05:43:02.553Z,10.02
2023-10-06T05:45:02.660Z,9.72
2023-10-06T05:47:02.552Z,10.68
2023-10-06T05:49:02.540Z,11.13
2023-10-06T05:51:02.684Z,9.95
2023-10-06T05:53:02.601Z,10.13
2023-10-06T05:55:02.551Z,10.42
2023-10-06T05:57:02.549Z,10.70
2023-10-06T05:59:02.575Z,10.73
2023-10-06T06:01:02.672Z,9.12
2023-10-06T06:03:02.626Z,10.23
2023-10-06T06:05:02.613Z,10.80
2023-10-06T06:07:02.584Z,11.25
2023-10-06T06:09:02.616Z,10.26
2023-10-06T06:11:02.656Z,10.41
2023-10-06T06:13:02.590Z,11.05
2023-10-06T06:15:02.639Z,10.37
2023-10-06T06:17:02.695Z,10.18
2023-10-06T06:19:02.700Z,9.93
2023-10-06T06:21:02.650Z,10.01
2023-10-06T06:23:02.657Z,10.22
2023-10-06T06:25:02.635Z,9.96
2023-10-06T06:27:02.726Z,9.43
2023-10-06T06:29:02.701Z,8.80
2023-10-06T06:31:02.640Z,8.59
2023-10-06T06:33:02.734Z,9.76
2023-10-06T06:35:02.715Z,9.89
2023-10-06T06:37:02.687Z,8.96
2023-10-06T06:39:02.670Z,9.00
2023-10-06T06:41:02.673Z,13.97
2023-10-06T06:43:02.750Z,14.38
2023-10-06T06:45:03.079Z,9.60
2023-10-06T06:47:02.743Z,9.34
2023-10-06T06:49:02.713Z,8.83
2023-10-06T06:51:02.704Z,8.47
2023-10-06T06:53:02.773Z,9.20
2023-10-06T06:55:02.745Z,9.21
2023-10-06T06:57:02.715Z,9.47
2023-10-06T06:59:02.869Z,9.72
2023-10-06T07:01:02.764Z,9.45
2023-10-06T07:03:02.839Z,9.07
2023-10-06T07:05:02.743Z,9.56
2023-10-06T07:07:02.769Z,9.71
2023-10-06T07:09:02.788Z,10.07
2023-10-06T07:11:02.832Z,10.83
2023-10-06T07:13:02.858Z,11.78
2023-10-06T07:15:02.793Z,11.16
2023-10-06T07:17:02.839Z,9.63
2023-10-06T07:19:02.836Z,10.63
2023-10-06T07:21:02.798Z,10.48
2023-10-06T07:23:02.879Z,9.65
2023-10-06T07:25:02.767Z,9.01
2023-10-06T07:27:03.003Z,8.84
2023-10-06T07:29:02.868Z,9.24
2023-10-06T07:31:02.826Z,10.17
2023-10-06T07:33:02.813Z,9.37
2023-10-06T07:35:02.876Z,9.04
2023-10-06T07:37:02.846Z,9.53
2023-10-06T07:40:02.884Z,9.40
2023-10-06T07:42:02.860Z,9.26
2023-10-06T07:44:02.864Z,10.02
2023-10-06T07:46:02.903Z,10.24
2023-10-06T07:48:03.001Z,9.45
2023-10-06T07:50:03.054Z,9.60
2023-10-06T07:52:02.847Z,9.89
2023-10-06T07:54:02.859Z,10.00
2023-10-06T07:56:02.905Z,9.45
2023-10-06T07:58:03.123Z,10.06
2023-10-06T08:00:02.908Z,11.92
2023-10-06T08:02:02.911Z,12.43
2023-10-06T08:04:02.878Z,9.97
2023-10-06T08:06:02.930Z,9.98
2023-10-06T08:08:02.962Z,9.84
2023-10-06T08:10:02.909Z,10.50
2023-10-06T08:12:02.903Z,10.01
2023-10-06T08:14:02.993Z,9.86
2023-10-06T08:16:02.999Z,9.40
2023-10-06T08:18:03.025Z,9.71
2023-10-06T08:20:03.007Z,10.21
2023-10-06T08:22:03.659Z,10.96
2023-10-06T08:24:02.970Z,10.31
2023-10-06T08:26:03.289Z,10.25
2023-10-06T08:28:02.958Z,9.80
2023-10-06T08:30:02.983Z,10.57
2023-10-06T08:32:03.000Z,10.91
2023-10-06T08:34:03.656Z,10.57
2023-10-06T08:36:03.434Z,11.30
2023-10-06T08:38:02.973Z,10.92
2023-10-06T08:40:03.902Z,10.72
2023-10-06T08:42:03.022Z,10.62
2023-10-06T08:44:03.043Z,10.71
2023-10-06T08:46:03.291Z,9.95
2023-10-06T08:48:04.456Z,10.39
2023-10-06T08:50:03.119Z,10.53
2023-10-06T08:52:03.208Z,10.29
2023-10-06T08:54:03.009Z,10.32
2023-10-06T08:56:03.070Z,11.16
2023-10-06T08:59:03.052Z,10.34
2023-10-06T09:01:03.097Z,9.92
2023-10-06T09:03:03.114Z,11.01
2023-10-06T09:05:03.103Z,9.39
2023-10-06T09:07:03.057Z,10.98
2023-10-06T09:09:03.064Z,10.98
2023-10-06T09:11:03.107Z,11.13
2023-10-06T09:13:03.089Z,12.27
2023-10-06T09:15:03.080Z,11.78
2023-10-06T09:17:03.223Z,10.70
2023-10-06T09:19:03.130Z,11.23
2023-10-06T09:21:03.126Z,10.82
2023-10-06T09:23:03.144Z,10.81
2023-10-06T09:25:03.101Z,10.65
2023-10-06T09:27:03.221Z,11.08
2023-10-06T09:29:03.726Z,11.11
2023-10-06T09:31:03.376Z,11.31
2023-10-06T09:33:03.213Z,11.29
2023-10-06T09:35:03.203Z,11.06
2023-10-06T09:37:03.185Z,12.19
2023-10-06T09:39:03.172Z,11.85
2023-10-06T09:41:03.184Z,11.95
2023-10-06T09:43:03.168Z,12.73
2023-10-06T09:45:03.202Z,11.06
2023-10-06T09:47:03.246Z,11.87
2023-10-06T09:49:03.179Z,10.90
2023-10-06T09:51:03.187Z,12.12
2023-10-06T09:53:03.243Z,11.20
2023-10-06T09:55:03.232Z,11.12
2023-10-06T09:57:03.190Z,12.05
2023-10-06T09:59:03.233Z,11.75
2023-10-06T10:01:03.331Z,12.58
2023-10-06T10:03:03.319Z,12.84
2023-10-06T10:05:03.298Z,11.13
2023-10-06T10:07:03.555Z,13.00
2023-10-06T10:09:03.260Z,16.76
2023-10-06T10:11:03.357Z,15.70
2023-10-06T10:13:03.286Z,11.64
2023-10-06T10:15:03.238Z,12.56
2023-10-06T10:17:03.331Z,11.90
2023-10-06T10:19:03.292Z,12.64
2023-10-06T10:21:03.291Z,11.99
2023-10-06T10:23:03.294Z,12.25
2023-10-06T10:25:20.962Z,12.05
2023-10-06T10:27:03.279Z,11.68
2023-10-06T10:29:03.425Z,12.56
2023-10-06T10:31:03.293Z,12.25
2023-10-06T10:34:18.758Z,11.82
2023-10-06T10:36:03.288Z,12.97
2023-10-06T10:38:05.695Z,12.28
2023-10-06T10:40:03.343Z,12.83
2023-10-06T10:42:03.341Z,13.26
2023-10-06T10:44:14.652Z,12.98
2023-10-06T10:46:03.311Z,12.70
2023-10-06T10:48:03.359Z,14.39
2023-10-06T10:51:03.336Z,17.09
2023-10-06T10:53:03.367Z,12.95
2023-10-06T10:55:03.386Z,13.02
2023-10-06T10:57:03.637Z,13.06
2023-10-06T10:59:03.342Z,13.06
2023-10-06T11:01:03.400Z,12.41
2023-10-06T11:03:03.453Z,14.01
2023-10-06T11:05:03.445Z,12.80
2023-10-06T11:07:03.520Z,12.71
2023-10-06T11:09:03.362Z,12.46
2023-10-06T11:11:03.450Z,11.81
2023-10-06T11:13:03.449Z,14.43
2023-10-06T11:15:03.427Z,12.54
2023-10-06T11:17:03.421Z,11.87
2023-10-06T11:19:03.398Z,11.76
2023-10-06T11:21:03.456Z,10.67
2023-10-06T11:23:03.496Z,10.65
2023-10-06T11:25:03.430Z,13.24
2023-10-06T11:27:03.414Z,12.21
2023-10-06T11:29:03.498Z,12.65
2023-10-06T11:31:03.489Z,12.65
2023-10-06T11:33:03.592Z,12.16
2023-10-06T11:35:03.467Z,13.68
2023-10-06T11:37:03.445Z,12.37
2023-10-06T11:39:03.501Z,12.97
2023-10-06T11:41:03.555Z,12.57
2023-10-06T11:44:04.716Z,23.76
2023-10-06T11:46:03.845Z,14.46
2023-10-06T11:48:03.708Z,13.08
2023-10-06T11:50:03.526Z,14.23
2023-10-06T11:52:03.544Z,13.74
2023-10-06T11:54:03.548Z,12.26
2023-10-06T11:56:03.624Z,13.74
2023-10-06T11:58:03.510Z,14.26
2023-10-06T12:00:03.569Z,13.30
2023-10-06T12:02:04.394Z,13.52
2023-10-06T12:04:03.641Z,12.92
2023-10-06T12:07:03.577Z,13.53
2023-10-06T12:09:03.533Z,14.49
2023-10-06T12:11:03.586Z,11.82
2023-10-06T12:13:03.581Z,12.05
2023-10-06T12:15:03.593Z,12.65
2023-10-06T12:17:03.672Z,11.93
2023-10-06T12:19:03.563Z,10.57
2023-10-06T12:21:03.602Z,10.98
2023-10-06T12:23:03.647Z,11.42
2023-10-06T12:25:03.622Z,12.33
2023-10-06T12:27:03.586Z,12.06
2023-10-06T12:29:03.614Z,12.33
2023-10-06T12:31:03.666Z,12.27
2023-10-06T12:34:03.674Z,12.16
2023-10-06T12:36:03.656Z,12.21
2023-10-06T12:38:04.585Z,13.43
2023-10-06T12:40:03.612Z,12.85
2023-10-06T12:42:03.612Z,11.35
2023-10-06T12:44:04.125Z,10.18
2023-10-06T12:46:03.692Z,10.80
2023-10-06T12:48:03.705Z,10.26
2023-10-06T12:50:03.691Z,11.03
2023-10-06T12:52:03.689Z,10.34
2023-10-06T12:54:03.708Z,10.25
2023-10-06T12:56:03.703Z,9.48
2023-10-06T12:58:03.659Z,10.65
2023-10-06T13:00:04.714Z,10.20
2023-10-06T13:02:03.746Z,9.48
2023-10-06T13:04:03.867Z,9.57
2023-10-06T13:06:04.390Z,8.55
2023-10-06T13:08:03.761Z,9.25
2023-10-06T13:10:04.004Z,8.97
2023-10-06T13:12:04.097Z,8.98
2023-10-06T13:14:03.776Z,8.96
2023-10-06T13:16:03.703Z,8.98
2023-10-06T13:18:03.861Z,9.20
2023-10-06T13:20:03.857Z,8.86
2023-10-06T13:22:03.725Z,9.02
2023-10-06T13:24:05.747Z,8.83
2023-10-06T13:26:03.815Z,8.95
2023-10-06T13:28:03.790Z,8.25
2023-10-06T13:30:04.861Z,9.03
2023-10-06T13:32:03.807Z,7.76
2023-10-06T13:34:04.102Z,9.40
2023-10-06T13:36:06.254Z,8.92
2023-10-06T13:39:03.806Z,7.79
2023-10-06T13:41:03.887Z,8.77
2023-10-06T13:43:03.831Z,7.49
2023-10-06T13:45:03.779Z,7.05
2023-10-06T13:48:05.525Z,7.35
2023-10-06T13:50:03.865Z,7.39
2023-10-06T13:52:03.852Z,7.61
2023-10-06T13:54:04.987Z,7.72
2023-10-06T13:56:04.001Z,8.27
2023-10-06T13:58:03.825Z,8.27
2023-10-06T14:00:05.157Z,8.09
2023-10-06T14:02:03.942Z,7.43
2023-10-06T14:05:03.904Z,7.42
2023-10-06T14:07:03.874Z,7.29
2023-10-06T14:11:03.880Z,6.49
2023-10-06T14:13:03.944Z,6.86
2023-10-06T14:15:03.898Z,5.69
2023-10-06T14:18:04.017Z,6.48
2023-10-06T14:20:03.931Z,6.26
2023-10-06T14:22:03.937Z,6.76
2023-10-06T14:24:04.754Z,6.17
2023-10-06T14:26:03.946Z,5.95
2023-10-06T14:28:03.944Z,6.84
2023-10-06T14:30:05.315Z,6.77
2023-10-06T14:32:03.950Z,6.10
2023-10-06T14:34:03.928Z,6.33
2023-10-06T14:37:03.920Z,6.25
2023-10-06T14:39:03.985Z,6.83
2023-10-06T14:41:03.972Z,6.30
2023-10-06T14:43:03.970Z,6.50
2023-10-06T14:45:03.985Z,6.64
2023-10-06T14:48:05.780Z,8.39
2023-10-06T14:50:03.966Z,7.32
2023-10-06T14:52:04.000Z,7.69
2023-10-06T14:54:04.010Z,6.61
2023-10-06T14:57:04.015Z,7.19
2023-10-06T15:02:04.055Z,7.05
2023-10-06T15:04:05.928Z,6.74
2023-10-06T15:06:03.997Z,6.09
2023-10-06T15:08:04.044Z,6.60
2023-10-06T15:10:04.046Z,6.24
2023-10-06T15:13:04.005Z,6.77
2023-10-06T15:15:04.069Z,11.80
2023-10-06T15:17:04.095Z,9.44
2023-10-06T15:20:04.087Z,7.44
2023-10-06T15:22:04.135Z,7.78
2023-10-06T15:24:04.073Z,8.51
2023-10-06T15:28:04.081Z,7.84
2023-10-06T15:30:04.104Z,7.33
2023-10-06T15:32:06.255Z,6.93
2023-10-06T15:34:04.087Z,7.14
2023-10-06T15:36:04.098Z,7.02
2023-10-06T15:38:05.191Z,7.16
2023-10-06T15:40:04.094Z,7.42
2023-10-06T15:42:04.102Z,7.01
2023-10-06T15:44:05.167Z,7.32
2023-10-06T15:46:04.238Z,7.16
2023-10-06T15:48:04.145Z,6.19
2023-10-06T15:50:15.569Z,6.83
2023-10-06T15:52:04.141Z,6.31
2023-10-06T15:54:04.160Z,6.59
2023-10-06T15:56:04.185Z,7.50
2023-10-06T15:58:04.128Z,8.03
2023-10-06T16:00:05.257Z,6.78
2023-10-06T16:02:04.239Z,6.52
2023-10-06T16:04:04.225Z,6.24
2023-10-06T16:06:04.156Z,6.16
2023-10-06T16:08:04.201Z,6.97
2023-10-06T16:10:04.202Z,6.12
2023-10-06T16:12:04.201Z,6.43
2023-10-06T16:14:04.230Z,5.55
2023-10-06T16:16:11.434Z,6.49
2023-10-06T16:18:04.239Z,6.01
2023-10-06T16:20:04.305Z,5.82
2023-10-06T16:22:04.235Z,6.96
2023-10-06T16:24:04.199Z,7.67
2023-10-06T16:26:04.230Z,16.17
2023-10-06T16:28:05.121Z,12.16
2023-10-06T16:30:04.288Z,8.18
2023-10-06T16:32:04.360Z,7.14
2023-10-06T16:34:04.236Z,6.07
2023-10-06T16:36:04.288Z,6.65
2023-10-06T16:38:04.315Z,6.78
2023-10-06T16:40:04.290Z,6.53
2023-10-06T16:42:04.248Z,6.24
2023-10-06T16:44:04.293Z,6.52
2023-10-06T16:46:04.359Z,6.92
2023-10-06T16:48:04.350Z,7.01
2023-10-06T16:50:04.322Z,6.90
2023-10-06T16:52:04.283Z,7.41
2023-10-06T16:54:04.328Z,7.99
2023-10-06T16:56:04.333Z,7.08
2023-10-06T16:58:04.312Z,9.94
2023-10-06T17:00:04.320Z,7.90
2023-10-06T17:02:04.364Z,7.62
2023-10-06T17:04:04.518Z,8.25
2023-10-06T17:06:04.360Z,8.11
2023-10-06T17:08:04.343Z,8.17
2023-10-06T17:10:04.318Z,8.57
2023-10-06T17:12:04.368Z,9.23
2023-10-06T17:14:04.772Z,8.97
2023-10-06T17:17:04.404Z,8.85
2023-10-06T17:19:04.383Z,9.76
2023-10-06T17:21:04.349Z,10.16
2023-10-06T17:23:04.406Z,10.26
2023-10-06T17:25:04.401Z,9.70
2023-10-06T17:28:04.409Z,10.15
2023-10-06T17:30:04.398Z,9.56
2023-10-06T17:33:04.499Z,9.67
2023-10-06T17:35:04.441Z,8.80
2023-10-06T17:37:27.392Z,8.03
2023-10-06T17:39:04.413Z,9.36
2023-10-06T17:41:04.470Z,9.71
2023-10-06T17:44:04.462Z,9.75
2023-10-06T17:47:04.436Z,9.68
2023-10-06T17:49:04.580Z,10.99
2023-10-06T17:51:04.464Z,10.24
2023-10-06T17:53:04.475Z,10.78
2023-10-06T17:56:04.485Z,12.05
2023-10-06T17:58:04.462Z,11.80
2023-10-06T18:00:04.440Z,11.91
2023-10-06T18:02:04.621Z,12.08
2023-10-06T18:04:04.628Z,15.36
2023-10-06T18:06:04.500Z,11.88
2023-10-06T18:08:04.468Z,12.06
2023-10-06T18:10:04.486Z,11.62
2023-10-06T18:12:24.056Z,28.16
2023-10-06T18:14:04.535Z,15.77
2023-10-06T18:16:04.506Z,12.43
2023-10-06T18:18:04.546Z,12.06
2023-10-06T18:20:04.571Z,11.54
2023-10-06T18:22:04.538Z,11.52
2023-10-06T18:24:04.503Z,10.68
2023-10-06T18:26:04.527Z,17.21
2023-10-06T18:28:04.567Z,12.07
2023-10-06T18:30:04.578Z,11.27
2023-10-06T18:32:04.677Z,11.09
2023-10-06T18:34:04.533Z,10.55
2023-10-06T18:37:04.532Z,9.57
2023-10-06T18:39:04.551Z,10.56
2023-10-06T18:41:04.627Z,10.10
2023-10-06T18:43:04.601Z,10.98
2023-10-06T18:45:04.610Z,11.52
2023-10-06T18:47:04.642Z,10.24
2023-10-06T18:49:04.574Z,11.13
2023-10-06T18:52:04.574Z,11.08
2023-10-06T18:54:04.635Z,9.72
2023-10-06T18:56:04.731Z,10.34
2023-10-06T18:58:04.656Z,9.25
2023-10-06T19:00:04.616Z,9.98
2023-10-06T19:02:04.821Z,9.54
2023-10-06T19:04:04.737Z,9.81
2023-10-06T19:06:04.670Z,9.05
2023-10-06T19:08:04.698Z,8.87
2023-10-06T19:10:04.644Z,9.13
2023-10-06T19:12:05.112Z,9.62
2023-10-06T19:14:04.688Z,9.05
2023-10-06T19:16:04.669Z,9.62
2023-10-06T19:18:04.706Z,10.85
2023-10-06T19:20:04.694Z,8.90
2023-10-06T19:22:04.713Z,9.35
2023-10-06T19:24:04.698Z,9.07
2023-10-06T19:26:04.690Z,10.41
2023-10-06T19:28:04.688Z,9.23
2023-10-06T19:30:04.724Z,8.96
2023-10-06T19:33:04.788Z,8.98
2023-10-06T19:35:04.731Z,9.60
2023-10-06T19:37:04.745Z,10.06
2023-10-06T19:40:04.736Z,10.30
2023-10-06T19:43:04.801Z,13.06
2023-10-06T19:45:04.745Z,10.85
2023-10-06T19:48:04.835Z,10.84
2023-10-06T19:50:04.785Z,9.73
2023-10-06T19:52:04.745Z,10.62
2023-10-06T19:54:04.742Z,10.74
2023-10-06T19:56:04.831Z,9.88
2023-10-06T19:58:04.802Z,10.89
2023-10-06T20:00:04.770Z,10.69
2023-10-06T20:02:04.819Z,11.03
2023-10-06T20:04:04.862Z,10.44
2023-10-06T20:06:04.815Z,10.19
2023-10-06T20:08:04.787Z,11.82
2023-10-06T20:10:04.811Z,14.58
2023-10-06T20:12:04.840Z,13.23
2023-10-06T20:14:04.841Z,12.02
2023-10-06T20:16:04.824Z,15.24
2023-10-06T20:19:04.858Z,13.27
2023-10-06T20:21:04.818Z,11.72
2023-10-06T20:23:04.798Z,10.71
2023-10-06T20:25:04.907Z,10.72
2023-10-06T20:27:04.877Z,10.24
2023-10-06T20:29:04.940Z,9.97
2023-10-06T20:31:04.946Z,10.27
2023-10-06T20:34:04.857Z,11.81
2023-10-06T20:37:04.907Z,11.46
2023-10-06T20:40:04.881Z,10.83
2023-10-06T20:43:04.901Z,11.45
2023-10-06T20:46:04.983Z,11.78
2023-10-06T20:48:05.034Z,10.78
2023-10-06T20:50:04.926Z,11.67
2023-10-06T20:53:04.932Z,10.71
2023-10-06T20:55:04.950Z,11.94
2023-10-06T20:58:04.969Z,12.50
2023-10-06T21:00:04.937Z,12.97
2023-10-06T21:02:04.954Z,13.18
2023-10-06T21:06:05.030Z,16.45
2023-10-06T21:08:04.978Z,13.35
2023-10-06T21:10:04.933Z,12.27
2023-10-06T21:12:04.972Z,12.77
2023-10-06T21:14:05.037Z,13.11
2023-10-06T21:16:04.998Z,12.91
2023-10-06T21:18:04.992Z,14.46
2023-10-06T21:20:04.963Z,13.90
2023-10-06T21:22:05.095Z,12.94
2023-10-06T21:24:05.021Z,13.71
2023-10-06T21:26:04.991Z,14.25
2023-10-06T21:28:04.970Z,14.19
2023-10-06T21:30:05.046Z,12.74
2023-10-06T21:32:05.076Z,12.92
2023-10-06T21:34:05.032Z,12.29
2023-10-06T21:37:05.068Z,13.64
2023-10-06T21:39:05.018Z,13.02
2023-10-06T21:41:05.048Z,13.31
2023-10-06T21:43:05.096Z,12.96
2023-10-06T21:45:05.086Z,12.60
2023-10-06T21:48:05.092Z,17.89
2023-10-06T21:50:05.120Z,15.96
2023-10-06T21:52:05.049Z,11.31
2023-10-06T21:55:05.099Z,10.42
2023-10-06T21:58:05.121Z,9.96
2023-10-06T22:00:05.074Z,10.79
2023-10-06T22:02:05.100Z,10.01
2023-10-06T22:04:05.278Z,10.83
2023-10-06T22:06:05.100Z,10.32
2023-10-06T22:08:05.149Z,12.22
2023-10-06T22:10:05.095Z,14.50
2023-10-06T22:12:05.088Z,14.53
2023-10-06T22:14:05.210Z,13.65
2023-10-06T22:16:05.178Z,14.98
2023-10-06T22:18:05.191Z,14.10
2023-10-06T22:20:05.128Z,14.07
2023-10-06T22:22:05.164Z,14.44
2023-10-06T22:24:05.180Z,13.79
2023-10-06T22:26:05.187Z,12.72
2023-10-06T22:28:05.143Z,13.34
2023-10-06T22:30:05.176Z,14.11
2023-10-06T22:32:05.413Z,13.99
2023-10-06T22:34:05.208Z,10.96
2023-10-06T22:36:05.168Z,11.70
2023-10-06T22:38:05.159Z,11.91
2023-10-06T22:40:05.192Z,10.99
2023-10-06T22:42:05.248Z,10.60
2023-10-06T22:44:05.194Z,10.80
2023-10-06T22:46:05.279Z,11.09
2023-10-06T22:48:05.322Z,11.42
2023-10-06T22:50:05.266Z,10.43
2023-10-06T22:55:05.292Z,11.53
2023-10-06T22:57:05.195Z,11.24
2023-10-06T22:59:05.265Z,10.15
2023-10-06T23:01:05.385Z,9.88
2023-10-06T23:03:05.330Z,10.26
2023-10-06T23:05:05.275Z,10.57
2023-10-06T23:07:05.242Z,10.60
2023-10-06T23:09:05.297Z,10.63
2023-10-06T23:11:05.314Z,10.62
2023-10-06T23:13:05.323Z,10.78
2023-10-06T23:15:05.259Z,10.98
2023-10-06T23:17:05.340Z,10.63
2023-10-06T23:19:05.344Z,10.40
2023-10-06T23:21:05.301Z,10.68
2023-10-06T23:23:05.366Z,10.58
2023-10-06T23:25:05.269Z,11.15
2023-10-06T23:27:05.321Z,11.05
2023-10-06T23:30:05.268Z,10.76
2023-10-06T23:32:05.416Z,11.88
2023-10-06T23:34:05.354Z,9.99
2023-10-06T23:36:05.334Z,9.99
2023-10-06T23:39:05.344Z,10.48
2023-10-06T23:41:05.382Z,10.22
2023-10-06T23:43:05.318Z,9.90
2023-10-06T23:45:05.343Z,10.03
2023-10-06T23:47:06.261Z,10.24
2023-10-06T23:49:05.371Z,11.15
2023-10-06T23:51:05.334Z,10.10
2023-10-06T23:53:05.433Z,10.18
2023-10-06T23:56:05.399Z,11.46
2023-10-06T23:59:05.435Z,11.72
